sensor_id;sensor_type;location;lat;lon;timestamp;P1;durP1;ratioP1;P2;durP2;ratioP2
261;SDS011;114;48.260;10.988;2024-01-11T00:01:59;83.57;;;30.00;;
261;SDS011;114;48.260;10.988;2024-01-11T00:04:25;82.03;;;28.40;;
261;SDS011;114;48.260;10.988;2024-01-11T00:06:51;76.87;;;29.27;;
261;SDS011;114;48.260;10.988;2024-01-11T00:09:18;74.13;;;29.17;;
261;SDS011;114;48.260;10.988;2024-01-11T00:11:44;84.27;;;29.27;;
261;SDS011;114;48.260;10.988;2024-01-11T00:14:10;73.07;;;26.20;;
261;SDS011;114;48.260;10.988;2024-01-11T00:16:35;66.57;;;25.97;;
261;SDS011;114;48.260;10.988;2024-01-11T00:19:02;67.40;;;28.93;;
261;SDS011;114;48.260;10.988;2024-01-11T00:21:28;83.47;;;28.07;;
261;SDS011;114;48.260;10.988;2024-01-11T00:23:53;82.73;;;28.57;;
261;SDS011;114;48.260;10.988;2024-01-11T00:26:19;78.60;;;28.77;;
261;SDS011;114;48.260;10.988;2024-01-11T00:28:45;99.07;;;31.50;;
261;SDS011;114;48.260;10.988;2024-01-11T00:31:11;80.90;;;29.57;;
261;SDS011;114;48.260;10.988;2024-01-11T00:33:36;79.00;;;28.00;;
261;SDS011;114;48.260;10.988;2024-01-11T00:36:02;75.63;;;28.67;;
261;SDS011;114;48.260;10.988;2024-01-11T00:38:28;72.00;;;28.33;;
261;SDS011;114;48.260;10.988;2024-01-11T00:40:55;72.90;;;28.40;;
261;SDS011;114;48.260;10.988;2024-01-11T00:43:21;80.10;;;30.47;;
261;SDS011;114;48.260;10.988;2024-01-11T00:45:46;71.87;;;29.27;;
261;SDS011;114;48.260;10.988;2024-01-11T00:48:12;79.90;;;28.83;;
261;SDS011;114;48.260;10.988;2024-01-11T00:50:39;92.47;;;31.23;;
261;SDS011;114;48.260;10.988;2024-01-11T00:53:04;91.60;;;28.67;;
261;SDS011;114;48.260;10.988;2024-01-11T00:55:31;80.60;;;28.83;;
261;SDS011;114;48.260;10.988;2024-01-11T00:57:56;77.30;;;28.77;;
261;SDS011;114;48.260;10.988;2024-01-11T01:00:23;85.03;;;30.43;;
261;SDS011;114;48.260;10.988;2024-01-11T01:02:49;81.83;;;28.57;;
261;SDS011;114;48.260;10.988;2024-01-11T01:05:16;85.33;;;28.67;;
261;SDS011;114;48.260;10.988;2024-01-11T01:07:41;68.77;;;27.87;;
261;SDS011;114;48.260;10.988;2024-01-11T01:10:07;74.10;;;29.20;;
261;SDS011;114;48.260;10.988;2024-01-11T01:12:35;80.70;;;27.70;;
261;SDS011;114;48.260;10.988;2024-01-11T01:15:00;74.37;;;29.20;;
261;SDS011;114;48.260;10.988;2024-01-11T01:17:26;88.70;;;29.60;;
261;SDS011;114;48.260;10.988;2024-01-11T01:19:52;85.60;;;31.00;;
261;SDS011;114;48.260;10.988;2024-01-11T01:22:17;84.13;;;30.90;;
261;SDS011;114;48.260;10.988;2024-01-11T01:24:43;91.57;;;31.87;;
261;SDS011;114;48.260;10.988;2024-01-11T01:27:09;81.73;;;30.37;;
261;SDS011;114;48.260;10.988;2024-01-11T01:29:34;90.57;;;33.63;;
261;SDS011;114;48.260;10.988;2024-01-11T01:32:01;94.30;;;31.67;;
261;SDS011;114;48.260;10.988;2024-01-11T01:34:28;101.20;;;30.40;;
261;SDS011;114;48.260;10.988;2024-01-11T01:36:54;93.23;;;30.87;;
261;SDS011;114;48.260;10.988;2024-01-11T01:39:19;89.50;;;30.93;;
261;SDS011;114;48.260;10.988;2024-01-11T01:41:45;101.10;;;30.67;;
261;SDS011;114;48.260;10.988;2024-01-11T01:44:10;83.47;;;28.70;;
261;SDS011;114;48.260;10.988;2024-01-11T01:46:36;83.40;;;30.70;;
261;SDS011;114;48.260;10.988;2024-01-11T01:49:02;85.17;;;31.10;;
261;SDS011;114;48.260;10.988;2024-01-11T01:51:29;81.43;;;29.10;;
261;SDS011;114;48.260;10.988;2024-01-11T01:53:58;71.47;;;30.33;;
261;SDS011;114;48.260;10.988;2024-01-11T01:56:27;99.53;;;35.00;;
261;SDS011;114;48.260;10.988;2024-01-11T01:58:53;83.10;;;33.03;;
261;SDS011;114;48.260;10.988;2024-01-11T02:01:20;82.37;;;32.90;;
261;SDS011;114;48.260;10.988;2024-01-11T02:03:49;84.80;;;33.03;;
261;SDS011;114;48.260;10.988;2024-01-11T02:06:18;99.10;;;34.97;;
261;SDS011;114;48.260;10.988;2024-01-11T02:08:47;82.03;;;30.37;;
261;SDS011;114;48.260;10.988;2024-01-11T02:11:13;87.33;;;31.30;;
261;SDS011;114;48.260;10.988;2024-01-11T02:13:40;80.80;;;31.00;;
261;SDS011;114;48.260;10.988;2024-01-11T02:16:06;83.07;;;30.60;;
261;SDS011;114;48.260;10.988;2024-01-11T02:18:32;78.13;;;31.00;;
261;SDS011;114;48.260;10.988;2024-01-11T02:20:58;97.67;;;32.77;;
261;SDS011;114;48.260;10.988;2024-01-11T02:23:24;83.10;;;31.63;;
261;SDS011;114;48.260;10.988;2024-01-11T02:25:51;80.13;;;31.73;;
261;SDS011;114;48.260;10.988;2024-01-11T02:28:17;124.23;;;32.30;;
261;SDS011;114;48.260;10.988;2024-01-11T02:30:43;81.47;;;31.90;;
261;SDS011;114;48.260;10.988;2024-01-11T02:33:08;84.20;;;33.23;;
261;SDS011;114;48.260;10.988;2024-01-11T02:35:35;77.17;;;30.13;;
261;SDS011;114;48.260;10.988;2024-01-11T02:38:03;86.07;;;31.43;;
261;SDS011;114;48.260;10.988;2024-01-11T02:40:30;87.27;;;32.60;;
261;SDS011;114;48.260;10.988;2024-01-11T02:42:56;80.90;;;31.40;;
261;SDS011;114;48.260;10.988;2024-01-11T02:45:23;66.23;;;28.37;;
261;SDS011;114;48.260;10.988;2024-01-11T02:47:49;88.77;;;31.57;;
261;SDS011;114;48.260;10.988;2024-01-11T02:50:15;119.37;;;32.90;;
261;SDS011;114;48.260;10.988;2024-01-11T02:52:40;123.10;;;31.67;;
261;SDS011;114;48.260;10.988;2024-01-11T02:55:06;79.60;;;32.00;;
261;SDS011;114;48.260;10.988;2024-01-11T02:57:32;161.70;;;34.47;;
261;SDS011;114;48.260;10.988;2024-01-11T02:59:58;79.63;;;32.00;;
261;SDS011;114;48.260;10.988;2024-01-11T03:02:23;106.80;;;35.17;;
261;SDS011;114;48.260;10.988;2024-01-11T03:04:49;88.37;;;32.60;;
261;SDS011;114;48.260;10.988;2024-01-11T03:07:15;88.70;;;32.50;;
261;SDS011;114;48.260;10.988;2024-01-11T03:09:41;82.23;;;33.17;;
261;SDS011;114;48.260;10.988;2024-01-11T03:12:06;83.67;;;33.63;;
261;SDS011;114;48.260;10.988;2024-01-11T03:14:33;90.90;;;33.20;;
261;SDS011;114;48.260;10.988;2024-01-11T03:17:00;90.83;;;31.10;;
261;SDS011;114;48.260;10.988;2024-01-11T03:19:26;86.70;;;32.60;;
261;SDS011;114;48.260;10.988;2024-01-11T03:21:52;86.27;;;32.20;;
261;SDS011;114;48.260;10.988;2024-01-11T03:24:18;91.13;;;32.50;;
261;SDS011;114;48.260;10.988;2024-01-11T03:26:43;98.53;;;33.90;;
261;SDS011;114;48.260;10.988;2024-01-11T03:29:09;88.20;;;32.30;;
261;SDS011;114;48.260;10.988;2024-01-11T03:31:35;105.37;;;35.63;;
261;SDS011;114;48.260;10.988;2024-01-11T03:34:02;80.80;;;33.37;;
261;SDS011;114;48.260;10.988;2024-01-11T03:36:29;87.50;;;31.90;;
261;SDS011;114;48.260;10.988;2024-01-11T03:38:55;85.47;;;30.73;;
261;SDS011;114;48.260;10.988;2024-01-11T03:41:21;91.43;;;33.90;;
261;SDS011;114;48.260;10.988;2024-01-11T03:43:46;83.80;;;32.03;;
261;SDS011;114;48.260;10.988;2024-01-11T03:46:13;90.37;;;32.90;;
261;SDS011;114;48.260;10.988;2024-01-11T03:48:39;79.27;;;32.23;;
261;SDS011;114;48.260;10.988;2024-01-11T03:51:04;85.10;;;32.53;;
261;SDS011;114;48.260;10.988;2024-01-11T03:53:30;93.20;;;33.20;;
261;SDS011;114;48.260;10.988;2024-01-11T03:55:59;87.50;;;31.87;;
261;SDS011;114;48.260;10.988;2024-01-11T03:58:25;94.07;;;31.70;;
261;SDS011;114;48.260;10.988;2024-01-11T04:00:51;89.30;;;32.97;;
261;SDS011;114;48.260;10.988;2024-01-11T04:03:17;97.63;;;32.03;;
261;SDS011;114;48.260;10.988;2024-01-11T04:05:43;82.67;;;31.93;;
261;SDS011;114;48.260;10.988;2024-01-11T04:08:08;85.17;;;30.93;;
261;SDS011;114;48.260;10.988;2024-01-11T04:10:34;83.80;;;33.67;;
261;SDS011;114;48.260;10.988;2024-01-11T04:13:00;88.83;;;33.37;;
261;SDS011;114;48.260;10.988;2024-01-11T04:15:26;86.53;;;31.87;;
261;SDS011;114;48.260;10.988;2024-01-11T04:17:51;93.90;;;32.77;;
261;SDS011;114;48.260;10.988;2024-01-11T04:20:17;80.63;;;32.00;;
261;SDS011;114;48.260;10.988;2024-01-11T04:22:43;72.73;;;30.70;;
261;SDS011;114;48.260;10.988;2024-01-11T04:25:09;88.30;;;33.93;;
261;SDS011;114;48.260;10.988;2024-01-11T04:27:35;81.57;;;30.83;;
261;SDS011;114;48.260;10.988;2024-01-11T04:30:02;69.57;;;30.63;;
261;SDS011;114;48.260;10.988;2024-01-11T04:32:28;76.93;;;30.83;;
261;SDS011;114;48.260;10.988;2024-01-11T04:34:54;82.70;;;31.90;;
261;SDS011;114;48.260;10.988;2024-01-11T04:37:21;61.73;;;28.17;;
261;SDS011;114;48.260;10.988;2024-01-11T04:39:47;67.17;;;28.80;;
261;SDS011;114;48.260;10.988;2024-01-11T04:42:12;57.47;;;27.50;;
261;SDS011;114;48.260;10.988;2024-01-11T04:44:39;76.00;;;30.80;;
261;SDS011;114;48.260;10.988;2024-01-11T04:47:04;76.73;;;31.93;;
261;SDS011;114;48.260;10.988;2024-01-11T04:49:30;76.43;;;30.60;;
261;SDS011;114;48.260;10.988;2024-01-11T04:51:57;74.07;;;30.13;;
261;SDS011;114;48.260;10.988;2024-01-11T04:54:22;88.20;;;33.30;;
261;SDS011;114;48.260;10.988;2024-01-11T04:56:48;85.30;;;32.03;;
261;SDS011;114;48.260;10.988;2024-01-11T04:59:14;88.87;;;33.83;;
261;SDS011;114;48.260;10.988;2024-01-11T05:01:40;95.10;;;32.37;;
261;SDS011;114;48.260;10.988;2024-01-11T05:04:07;96.03;;;33.20;;
261;SDS011;114;48.260;10.988;2024-01-11T05:06:33;89.10;;;33.47;;
261;SDS011;114;48.260;10.988;2024-01-11T05:08:58;83.60;;;32.73;;
261;SDS011;114;48.260;10.988;2024-01-11T05:11:25;90.50;;;34.27;;
261;SDS011;114;48.260;10.988;2024-01-11T05:13:51;78.20;;;34.23;;
261;SDS011;114;48.260;10.988;2024-01-11T05:16:21;74.20;;;32.27;;
261;SDS011;114;48.260;10.988;2024-01-11T05:18:51;73.27;;;31.80;;
261;SDS011;114;48.260;10.988;2024-01-11T05:21:17;86.30;;;34.73;;
261;SDS011;114;48.260;10.988;2024-01-11T05:23:43;72.73;;;31.90;;
261;SDS011;114;48.260;10.988;2024-01-11T05:26:10;69.60;;;31.50;;
261;SDS011;114;48.260;10.988;2024-01-11T05:28:37;78.93;;;32.23;;
261;SDS011;114;48.260;10.988;2024-01-11T05:31:07;89.63;;;36.10;;
261;SDS011;114;48.260;10.988;2024-01-11T05:33:38;86.77;;;33.13;;
261;SDS011;114;48.260;10.988;2024-01-11T05:36:04;93.67;;;36.07;;
261;SDS011;114;48.260;10.988;2024-01-11T05:38:30;104.00;;;36.80;;
261;SDS011;114;48.260;10.988;2024-01-11T05:40:56;92.57;;;33.70;;
261;SDS011;114;48.260;10.988;2024-01-11T05:43:22;83.03;;;33.50;;
261;SDS011;114;48.260;10.988;2024-01-11T05:45:48;89.03;;;33.10;;
261;SDS011;114;48.260;10.988;2024-01-11T05:48:15;82.13;;;32.93;;
261;SDS011;114;48.260;10.988;2024-01-11T05:50:41;95.17;;;34.97;;
261;SDS011;114;48.260;10.988;2024-01-11T05:53:07;78.43;;;32.50;;
261;SDS011;114;48.260;10.988;2024-01-11T05:55:33;76.10;;;31.90;;
261;SDS011;114;48.260;10.988;2024-01-11T05:57:59;73.57;;;31.90;;
261;SDS011;114;48.260;10.988;2024-01-11T06:00:25;77.10;;;31.93;;
261;SDS011;114;48.260;10.988;2024-01-11T06:02:50;144.03;;;31.83;;
261;SDS011;114;48.260;10.988;2024-01-11T06:05:16;74.23;;;32.40;;
261;SDS011;114;48.260;10.988;2024-01-11T06:07:42;77.27;;;32.70;;
261;SDS011;114;48.260;10.988;2024-01-11T06:10:07;69.40;;;32.20;;
261;SDS011;114;48.260;10.988;2024-01-11T06:12:33;69.30;;;31.53;;
261;SDS011;114;48.260;10.988;2024-01-11T06:15:00;87.37;;;35.87;;
261;SDS011;114;48.260;10.988;2024-01-11T06:17:26;87.73;;;33.00;;
261;SDS011;114;48.260;10.988;2024-01-11T06:19:52;85.60;;;34.87;;
261;SDS011;114;48.260;10.988;2024-01-11T06:22:19;90.70;;;35.20;;
261;SDS011;114;48.260;10.988;2024-01-11T06:24:45;84.00;;;34.70;;
261;SDS011;114;48.260;10.988;2024-01-11T06:27:11;86.53;;;36.40;;
261;SDS011;114;48.260;10.988;2024-01-11T06:29:36;87.57;;;36.63;;
261;SDS011;114;48.260;10.988;2024-01-11T06:32:02;85.07;;;34.63;;
261;SDS011;114;48.260;10.988;2024-01-11T06:34:28;101.97;;;36.90;;
261;SDS011;114;48.260;10.988;2024-01-11T06:36:54;92.30;;;37.20;;
261;SDS011;114;48.260;10.988;2024-01-11T06:39:20;105.73;;;39.30;;
261;SDS011;114;48.260;10.988;2024-01-11T06:41:46;98.83;;;37.03;;
261;SDS011;114;48.260;10.988;2024-01-11T06:44:11;79.70;;;32.93;;
261;SDS011;114;48.260;10.988;2024-01-11T06:46:37;76.70;;;32.53;;
261;SDS011;114;48.260;10.988;2024-01-11T06:49:06;79.60;;;32.63;;
261;SDS011;114;48.260;10.988;2024-01-11T06:51:32;78.87;;;33.10;;
261;SDS011;114;48.260;10.988;2024-01-11T06:53:58;101.23;;;34.60;;
261;SDS011;114;48.260;10.988;2024-01-11T06:56:26;90.87;;;35.73;;
261;SDS011;114;48.260;10.988;2024-01-11T06:58:52;90.40;;;34.50;;
261;SDS011;114;48.260;10.988;2024-01-11T07:01:17;87.87;;;36.87;;
261;SDS011;114;48.260;10.988;2024-01-11T07:03:43;79.80;;;33.33;;
261;SDS011;114;48.260;10.988;2024-01-11T07:06:09;76.83;;;32.70;;
261;SDS011;114;48.260;10.988;2024-01-11T07:08:35;98.43;;;33.17;;
261;SDS011;114;48.260;10.988;2024-01-11T07:11:01;91.70;;;33.93;;
261;SDS011;114;48.260;10.988;2024-01-11T07:13:30;70.40;;;30.20;;
261;SDS011;114;48.260;10.988;2024-01-11T07:15:56;81.33;;;35.93;;
261;SDS011;114;48.260;10.988;2024-01-11T07:18:23;77.90;;;33.60;;
261;SDS011;114;48.260;10.988;2024-01-11T07:20:50;69.73;;;30.73;;
261;SDS011;114;48.260;10.988;2024-01-11T07:23:16;85.07;;;33.50;;
261;SDS011;114;48.260;10.988;2024-01-11T07:25:41;82.33;;;33.77;;
261;SDS011;114;48.260;10.988;2024-01-11T07:28:07;88.73;;;34.77;;
261;SDS011;114;48.260;10.988;2024-01-11T07:30:33;85.70;;;34.77;;
261;SDS011;114;48.260;10.988;2024-01-11T07:32:59;84.37;;;35.30;;
261;SDS011;114;48.260;10.988;2024-01-11T07:35:25;91.37;;;33.90;;
261;SDS011;114;48.260;10.988;2024-01-11T07:37:50;93.70;;;36.90;;
261;SDS011;114;48.260;10.988;2024-01-11T07:40:16;84.57;;;34.50;;
261;SDS011;114;48.260;10.988;2024-01-11T07:42:42;77.00;;;32.07;;
261;SDS011;114;48.260;10.988;2024-01-11T07:45:08;76.83;;;32.97;;
261;SDS011;114;48.260;10.988;2024-01-11T07:47:37;77.73;;;35.23;;
261;SDS011;114;48.260;10.988;2024-01-11T07:50:04;81.40;;;33.60;;
261;SDS011;114;48.260;10.988;2024-01-11T07:52:31;78.97;;;34.17;;
261;SDS011;114;48.260;10.988;2024-01-11T07:54:57;71.93;;;32.30;;
261;SDS011;114;48.260;10.988;2024-01-11T07:57:31;70.10;;;33.43;;
261;SDS011;114;48.260;10.988;2024-01-11T08:00:00;73.07;;;32.83;;
261;SDS011;114;48.260;10.988;2024-01-11T08:02:28;83.90;;;34.83;;
261;SDS011;114;48.260;10.988;2024-01-11T08:04:54;73.43;;;33.90;;
261;SDS011;114;48.260;10.988;2024-01-11T08:07:21;80.93;;;34.90;;
261;SDS011;114;48.260;10.988;2024-01-11T08:09:47;74.90;;;33.17;;
261;SDS011;114;48.260;10.988;2024-01-11T08:12:13;71.43;;;32.80;;
261;SDS011;114;48.260;10.988;2024-01-11T08:14:41;82.20;;;34.47;;
261;SDS011;114;48.260;10.988;2024-01-11T08:17:07;77.20;;;33.80;;
261;SDS011;114;48.260;10.988;2024-01-11T08:19:33;73.83;;;35.00;;
261;SDS011;114;48.260;10.988;2024-01-11T08:22:00;73.67;;;32.33;;
261;SDS011;114;48.260;10.988;2024-01-11T08:24:26;69.07;;;33.20;;
261;SDS011;114;48.260;10.988;2024-01-11T08:26:52;67.40;;;32.77;;
261;SDS011;114;48.260;10.988;2024-01-11T08:29:18;66.83;;;31.00;;
261;SDS011;114;48.260;10.988;2024-01-11T08:31:47;74.93;;;34.37;;
261;SDS011;114;48.260;10.988;2024-01-11T08:34:14;76.93;;;33.33;;
261;SDS011;114;48.260;10.988;2024-01-11T08:36:39;77.23;;;34.20;;
261;SDS011;114;48.260;10.988;2024-01-11T08:39:05;76.50;;;33.73;;
261;SDS011;114;48.260;10.988;2024-01-11T08:41:31;79.77;;;31.87;;
261;SDS011;114;48.260;10.988;2024-01-11T08:43:58;87.77;;;35.40;;
261;SDS011;114;48.260;10.988;2024-01-11T08:46:27;80.07;;;33.70;;
261;SDS011;114;48.260;10.988;2024-01-11T08:48:53;90.53;;;35.37;;
261;SDS011;114;48.260;10.988;2024-01-11T08:51:21;80.67;;;33.17;;
261;SDS011;114;48.260;10.988;2024-01-11T08:53:46;82.73;;;32.53;;
261;SDS011;114;48.260;10.988;2024-01-11T08:56:12;76.67;;;33.07;;
261;SDS011;114;48.260;10.988;2024-01-11T08:58:39;81.77;;;33.33;;
261;SDS011;114;48.260;10.988;2024-01-11T09:01:05;73.53;;;31.50;;
261;SDS011;114;48.260;10.988;2024-01-11T09:03:33;73.03;;;33.80;;
261;SDS011;114;48.260;10.988;2024-01-11T09:05:59;79.17;;;34.57;;
261;SDS011;114;48.260;10.988;2024-01-11T09:08:25;80.17;;;34.70;;
261;SDS011;114;48.260;10.988;2024-01-11T09:10:51;70.13;;;33.60;;
261;SDS011;114;48.260;10.988;2024-01-11T09:13:18;68.57;;;30.27;;
261;SDS011;114;48.260;10.988;2024-01-11T09:15:43;79.73;;;35.60;;
261;SDS011;114;48.260;10.988;2024-01-11T09:18:09;72.83;;;31.40;;
261;SDS011;114;48.260;10.988;2024-01-11T09:20:36;68.50;;;31.43;;
261;SDS011;114;48.260;10.988;2024-01-11T09:23:02;75.27;;;35.77;;
261;SDS011;114;48.260;10.988;2024-01-11T09:25:31;65.33;;;31.10;;
261;SDS011;114;48.260;10.988;2024-01-11T09:27:57;68.60;;;34.63;;
261;SDS011;114;48.260;10.988;2024-01-11T09:30:22;60.40;;;30.60;;
261;SDS011;114;48.260;10.988;2024-01-11T09:32:48;63.80;;;30.27;;
261;SDS011;114;48.260;10.988;2024-01-11T09:35:14;68.03;;;31.80;;
261;SDS011;114;48.260;10.988;2024-01-11T09:37:40;57.50;;;29.00;;
261;SDS011;114;48.260;10.988;2024-01-11T09:40:05;69.73;;;31.20;;
261;SDS011;114;48.260;10.988;2024-01-11T09:42:38;69.10;;;31.40;;
261;SDS011;114;48.260;10.988;2024-01-11T09:45:07;63.80;;;30.73;;
261;SDS011;114;48.260;10.988;2024-01-11T09:47:43;75.60;;;33.87;;
261;SDS011;114;48.260;10.988;2024-01-11T09:50:10;58.87;;;31.60;;
261;SDS011;114;48.260;10.988;2024-01-11T09:52:42;70.50;;;33.40;;
261;SDS011;114;48.260;10.988;2024-01-11T09:55:13;63.60;;;28.97;;
261;SDS011;114;48.260;10.988;2024-01-11T09:57:39;61.20;;;30.80;;
261;SDS011;114;48.260;10.988;2024-01-11T10:00:09;53.83;;;29.13;;
261;SDS011;114;48.260;10.988;2024-01-11T10:02:45;59.10;;;30.30;;
261;SDS011;114;48.260;10.988;2024-01-11T10:05:11;57.93;;;27.93;;
261;SDS011;114;48.260;10.988;2024-01-11T10:07:39;57.00;;;30.70;;
261;SDS011;114;48.260;10.988;2024-01-11T10:10:06;53.53;;;28.90;;
261;SDS011;114;48.260;10.988;2024-01-11T10:12:34;57.47;;;29.20;;
261;SDS011;114;48.260;10.988;2024-01-11T10:15:05;62.40;;;29.90;;
261;SDS011;114;48.260;10.988;2024-01-11T10:17:35;57.53;;;31.00;;
261;SDS011;114;48.260;10.988;2024-01-11T10:20:02;56.87;;;30.97;;
261;SDS011;114;48.260;10.988;2024-01-11T10:22:28;57.60;;;30.23;;
261;SDS011;114;48.260;10.988;2024-01-11T10:27:42;53.33;;;28.70;;
261;SDS011;114;48.260;10.988;2024-01-11T10:30:10;50.97;;;27.00;;
261;SDS011;114;48.260;10.988;2024-01-11T10:32:41;56.93;;;28.93;;
261;SDS011;114;48.260;10.988;2024-01-11T10:35:07;52.13;;;26.67;;
261;SDS011;114;48.260;10.988;2024-01-11T10:37:33;48.67;;;25.80;;
261;SDS011;114;48.260;10.988;2024-01-11T10:40:02;53.13;;;26.13;;
261;SDS011;114;48.260;10.988;2024-01-11T10:42:34;49.10;;;26.80;;
261;SDS011;114;48.260;10.988;2024-01-11T10:45:04;54.40;;;28.50;;
261;SDS011;114;48.260;10.988;2024-01-11T10:47:35;58.13;;;27.23;;
261;SDS011;114;48.260;10.988;2024-01-11T10:50:03;59.40;;;29.30;;
261;SDS011;114;48.260;10.988;2024-01-11T10:52:33;55.37;;;28.33;;
261;SDS011;114;48.260;10.988;2024-01-11T10:55:07;58.10;;;28.83;;
261;SDS011;114;48.260;10.988;2024-01-11T10:57:33;60.37;;;29.87;;
261;SDS011;114;48.260;10.988;2024-01-11T11:00:00;68.47;;;32.43;;
261;SDS011;114;48.260;10.988;2024-01-11T11:02:28;63.50;;;30.30;;
261;SDS011;114;48.260;10.988;2024-01-11T11:04:55;55.23;;;28.20;;
261;SDS011;114;48.260;10.988;2024-01-11T11:07:22;57.53;;;29.40;;
261;SDS011;114;48.260;10.988;2024-01-11T11:09:49;67.30;;;30.53;;
261;SDS011;114;48.260;10.988;2024-01-11T11:12:16;58.90;;;28.73;;
261;SDS011;114;48.260;10.988;2024-01-11T11:14:43;56.17;;;27.60;;
261;SDS011;114;48.260;10.988;2024-01-11T11:17:12;57.90;;;27.60;;
261;SDS011;114;48.260;10.988;2024-01-11T11:19:40;58.60;;;28.00;;
261;SDS011;114;48.260;10.988;2024-01-11T11:22:06;58.43;;;31.90;;
261;SDS011;114;48.260;10.988;2024-01-11T11:24:33;56.93;;;30.30;;
261;SDS011;114;48.260;10.988;2024-01-11T11:27:00;56.73;;;29.20;;
261;SDS011;114;48.260;10.988;2024-01-11T11:29:26;60.27;;;28.73;;
261;SDS011;114;48.260;10.988;2024-01-11T11:31:51;57.03;;;31.27;;
261;SDS011;114;48.260;10.988;2024-01-11T11:34:19;65.00;;;31.83;;
261;SDS011;114;48.260;10.988;2024-01-11T11:36:47;55.77;;;29.00;;
261;SDS011;114;48.260;10.988;2024-01-11T11:39:19;57.97;;;30.23;;
261;SDS011;114;48.260;10.988;2024-01-11T11:41:45;58.57;;;32.90;;
261;SDS011;114;48.260;10.988;2024-01-11T11:44:12;60.57;;;31.57;;
261;SDS011;114;48.260;10.988;2024-01-11T11:46:41;56.40;;;28.93;;
261;SDS011;114;48.260;10.988;2024-01-11T11:49:07;58.73;;;30.93;;
261;SDS011;114;48.260;10.988;2024-01-11T11:51:32;62.70;;;30.13;;
261;SDS011;114;48.260;10.988;2024-01-11T11:54:00;57.43;;;32.70;;
261;SDS011;114;48.260;10.988;2024-01-11T11:56:27;72.10;;;31.90;;
261;SDS011;114;48.260;10.988;2024-01-11T11:58:53;58.27;;;31.93;;
261;SDS011;114;48.260;10.988;2024-01-11T12:01:20;62.30;;;33.13;;
261;SDS011;114;48.260;10.988;2024-01-11T12:03:46;55.37;;;30.20;;
261;SDS011;114;48.260;10.988;2024-01-11T12:06:15;62.57;;;34.60;;
261;SDS011;114;48.260;10.988;2024-01-11T12:08:43;80.30;;;33.53;;
261;SDS011;114;48.260;10.988;2024-01-11T12:11:09;72.67;;;36.70;;
261;SDS011;114;48.260;10.988;2024-01-11T12:13:38;75.93;;;36.20;;
261;SDS011;114;48.260;10.988;2024-01-11T12:16:05;67.83;;;34.83;;
261;SDS011;114;48.260;10.988;2024-01-11T12:18:31;75.00;;;38.10;;
261;SDS011;114;48.260;10.988;2024-01-11T12:20:56;73.80;;;36.63;;
261;SDS011;114;48.260;10.988;2024-01-11T12:23:23;75.17;;;35.03;;
261;SDS011;114;48.260;10.988;2024-01-11T12:25:49;69.57;;;35.37;;
261;SDS011;114;48.260;10.988;2024-01-11T12:28:15;65.83;;;34.03;;
261;SDS011;114;48.260;10.988;2024-01-11T12:30:42;78.83;;;37.47;;
261;SDS011;114;48.260;10.988;2024-01-11T12:33:07;75.57;;;37.70;;
261;SDS011;114;48.260;10.988;2024-01-11T12:35:34;70.43;;;34.40;;
261;SDS011;114;48.260;10.988;2024-01-11T12:38:01;65.60;;;34.53;;
261;SDS011;114;48.260;10.988;2024-01-11T12:40:34;66.97;;;36.23;;
261;SDS011;114;48.260;10.988;2024-01-11T12:43:02;71.97;;;37.40;;
261;SDS011;114;48.260;10.988;2024-01-11T12:45:29;78.93;;;37.13;;
261;SDS011;114;48.260;10.988;2024-01-11T12:47:58;75.80;;;36.17;;
261;SDS011;114;48.260;10.988;2024-01-11T12:50:24;73.97;;;35.47;;
261;SDS011;114;48.260;10.988;2024-01-11T12:55:46;72.30;;;33.90;;
261;SDS011;114;48.260;10.988;2024-01-11T12:58:13;72.30;;;35.07;;
261;SDS011;114;48.260;10.988;2024-01-11T13:00:43;70.43;;;35.70;;
261;SDS011;114;48.260;10.988;2024-01-11T13:03:09;71.23;;;35.93;;
261;SDS011;114;48.260;10.988;2024-01-11T13:05:35;76.20;;;37.90;;
261;SDS011;114;48.260;10.988;2024-01-11T13:08:01;73.43;;;34.70;;
261;SDS011;114;48.260;10.988;2024-01-11T13:10:28;70.73;;;33.97;;
261;SDS011;114;48.260;10.988;2024-01-11T13:12:54;70.30;;;37.70;;
261;SDS011;114;48.260;10.988;2024-01-11T13:15:21;75.87;;;35.13;;
261;SDS011;114;48.260;10.988;2024-01-11T13:17:48;67.63;;;34.57;;
261;SDS011;114;48.260;10.988;2024-01-11T13:20:14;68.87;;;34.90;;
261;SDS011;114;48.260;10.988;2024-01-11T13:22:40;74.10;;;35.53;;
261;SDS011;114;48.260;10.988;2024-01-11T13:25:06;70.17;;;34.97;;
261;SDS011;114;48.260;10.988;2024-01-11T13:27:31;78.47;;;37.60;;
261;SDS011;114;48.260;10.988;2024-01-11T13:29:57;67.77;;;34.80;;
261;SDS011;114;48.260;10.988;2024-01-11T13:32:23;71.73;;;34.27;;
261;SDS011;114;48.260;10.988;2024-01-11T13:34:49;74.33;;;36.07;;
261;SDS011;114;48.260;10.988;2024-01-11T13:37:18;79.13;;;38.13;;
261;SDS011;114;48.260;10.988;2024-01-11T13:39:44;76.07;;;36.00;;
261;SDS011;114;48.260;10.988;2024-01-11T13:42:09;71.27;;;35.20;;
261;SDS011;114;48.260;10.988;2024-01-11T13:44:36;68.20;;;35.97;;
261;SDS011;114;48.260;10.988;2024-01-11T13:47:01;66.87;;;36.30;;
261;SDS011;114;48.260;10.988;2024-01-11T13:49:28;64.50;;;34.80;;
261;SDS011;114;48.260;10.988;2024-01-11T13:51:53;78.83;;;38.33;;
261;SDS011;114;48.260;10.988;2024-01-11T13:54:19;76.40;;;37.40;;
261;SDS011;114;48.260;10.988;2024-01-11T13:56:46;73.60;;;37.40;;
261;SDS011;114;48.260;10.988;2024-01-11T13:59:12;76.50;;;38.67;;
261;SDS011;114;48.260;10.988;2024-01-11T14:01:38;69.80;;;36.73;;
261;SDS011;114;48.260;10.988;2024-01-11T14:04:03;76.83;;;39.10;;
261;SDS011;114;48.260;10.988;2024-01-11T14:06:29;74.40;;;37.13;;
261;SDS011;114;48.260;10.988;2024-01-11T14:08:55;71.63;;;34.67;;
261;SDS011;114;48.260;10.988;2024-01-11T14:11:21;77.03;;;37.07;;
261;SDS011;114;48.260;10.988;2024-01-11T14:13:46;72.90;;;36.80;;
261;SDS011;114;48.260;10.988;2024-01-11T14:16:13;81.37;;;38.30;;
261;SDS011;114;48.260;10.988;2024-01-11T14:18:40;81.20;;;38.27;;
261;SDS011;114;48.260;10.988;2024-01-11T14:21:06;73.40;;;37.10;;
261;SDS011;114;48.260;10.988;2024-01-11T14:23:32;69.30;;;35.67;;
261;SDS011;114;48.260;10.988;2024-01-11T14:25:57;82.90;;;38.27;;
261;SDS011;114;48.260;10.988;2024-01-11T14:28:23;86.97;;;40.10;;
261;SDS011;114;48.260;10.988;2024-01-11T14:30:49;90.60;;;41.27;;
261;SDS011;114;48.260;10.988;2024-01-11T14:33:15;93.43;;;40.57;;
261;SDS011;114;48.260;10.988;2024-01-11T14:35:40;90.13;;;39.97;;
261;SDS011;114;48.260;10.988;2024-01-11T14:38:06;78.67;;;39.67;;
261;SDS011;114;48.260;10.988;2024-01-11T14:40:32;83.53;;;38.07;;
261;SDS011;114;48.260;10.988;2024-01-11T14:42:57;71.50;;;35.07;;
261;SDS011;114;48.260;10.988;2024-01-11T14:45:23;81.50;;;37.23;;
261;SDS011;114;48.260;10.988;2024-01-11T14:47:48;75.10;;;36.00;;
261;SDS011;114;48.260;10.988;2024-01-11T14:50:14;72.70;;;36.03;;
261;SDS011;114;48.260;10.988;2024-01-11T14:52:40;70.43;;;37.47;;
261;SDS011;114;48.260;10.988;2024-01-11T14:55:06;79.23;;;37.60;;
261;SDS011;114;48.260;10.988;2024-01-11T14:57:34;76.13;;;35.77;;
261;SDS011;114;48.260;10.988;2024-01-11T15:00:00;69.83;;;37.30;;
261;SDS011;114;48.260;10.988;2024-01-11T15:02:26;82.17;;;39.13;;